sensor_id;sensor_type;location;lat;lon;timestamp;P1;durP1;ratioP1;P2;durP2;ratioP2
55330;SDS011;58851;42.984;20.336;2023-03-23T00:01:15;164.38;;;98.53;;
55330;SDS011;58851;42.984;20.336;2023-03-23T00:03:45;172.63;;;97.30;;
55330;SDS011;58851;42.984;20.336;2023-03-23T00:06:13;149.50;;;84.43;;
55330;SDS011;58851;42.984;20.336;2023-03-23T00:08:43;153.88;;;86.35;;
55330;SDS011;58851;42.984;20.336;2023-03-23T00:11:18;173.80;;;101.80;;
55330;SDS011;58851;42.984;20.336;2023-03-23T00:13:45;137.07;;;81.87;;
55330;SDS011;58851;42.984;20.336;2023-03-23T00:16:13;136.05;;;77.03;;
55330;SDS011;58851;42.984;20.336;2023-03-23T00:18:45;119.75;;;74.65;;
55330;SDS011;58851;42.984;20.336;2023-03-23T00:21:12;125.50;;;72.65;;
55330;SDS011;58851;42.984;20.336;2023-03-23T00:23:38;206.85;;;113.63;;
55330;SDS011;58851;42.984;20.336;2023-03-23T00:26:04;134.45;;;76.05;;
55330;SDS011;58851;42.984;20.336;2023-03-23T00:28:30;116.22;;;65.88;;
55330;SDS011;58851;42.984;20.336;2023-03-23T00:31:00;112.57;;;63.65;;
55330;SDS011;58851;42.984;20.336;2023-03-23T00:33:29;95.63;;;54.40;;
55330;SDS011;58851;42.984;20.336;2023-03-23T00:35:58;100.32;;;61.15;;
55330;SDS011;58851;42.984;20.336;2023-03-23T00:38:24;155.27;;;89.10;;
55330;SDS011;58851;42.984;20.336;2023-03-23T00:40:51;175.23;;;87.00;;
55330;SDS011;58851;42.984;20.336;2023-03-23T00:43:18;120.65;;;62.38;;
55330;SDS011;58851;42.984;20.336;2023-03-23T00:45:44;98.55;;;55.45;;
55330;SDS011;58851;42.984;20.336;2023-03-23T00:48:17;80.05;;;46.35;;
55330;SDS011;58851;42.984;20.336;2023-03-23T00:50:48;78.40;;;45.10;;
55330;SDS011;58851;42.984;20.336;2023-03-23T00:53:15;111.22;;;59.97;;
55330;SDS011;58851;42.984;20.336;2023-03-23T00:55:41;96.05;;;51.70;;
55330;SDS011;58851;42.984;20.336;2023-03-23T00:58:08;106.28;;;58.53;;
55330;SDS011;58851;42.984;20.336;2023-03-23T01:00:35;98.85;;;52.67;;
55330;SDS011;58851;42.984;20.336;2023-03-23T01:03:01;97.45;;;58.75;;
55330;SDS011;58851;42.984;20.336;2023-03-23T01:05:26;68.03;;;45.30;;
55330;SDS011;58851;42.984;20.336;2023-03-23T01:08:00;59.03;;;40.70;;
55330;SDS011;58851;42.984;20.336;2023-03-23T01:10:26;63.85;;;45.47;;
55330;SDS011;58851;42.984;20.336;2023-03-23T01:12:53;74.78;;;45.00;;
55330;SDS011;58851;42.984;20.336;2023-03-23T01:15:20;74.78;;;45.60;;
55330;SDS011;58851;42.984;20.336;2023-03-23T01:17:46;57.95;;;37.17;;
55330;SDS011;58851;42.984;20.336;2023-03-23T01:20:12;62.25;;;39.33;;
55330;SDS011;58851;42.984;20.336;2023-03-23T01:22:40;401.45;;;193.38;;
55330;SDS011;58851;42.984;20.336;2023-03-23T01:25:07;679.92;;;364.60;;
55330;SDS011;58851;42.984;20.336;2023-03-23T01:27:34;617.97;;;325.77;;
55330;SDS011;58851;42.984;20.336;2023-03-23T01:30:00;572.03;;;309.83;;
55330;SDS011;58851;42.984;20.336;2023-03-23T01:32:26;443.92;;;214.23;;
55330;SDS011;58851;42.984;20.336;2023-03-23T01:34:52;271.70;;;150.75;;
55330;SDS011;58851;42.984;20.336;2023-03-23T01:37:18;89.80;;;52.58;;
55330;SDS011;58851;42.984;20.336;2023-03-23T01:39:44;45.05;;;29.65;;
55330;SDS011;58851;42.984;20.336;2023-03-23T01:42:10;38.50;;;23.60;;
55330;SDS011;58851;42.984;20.336;2023-03-23T01:47:02;73.47;;;38.17;;
55330;SDS011;58851;42.984;20.336;2023-03-23T01:49:33;93.70;;;47.22;;
55330;SDS011;58851;42.984;20.336;2023-03-23T01:52:25;90.97;;;45.95;;
55330;SDS011;58851;42.984;20.336;2023-03-23T01:54:54;143.50;;;69.55;;
55330;SDS011;58851;42.984;20.336;2023-03-23T01:57:22;194.52;;;92.72;;
55330;SDS011;58851;42.984;20.336;2023-03-23T01:59:52;121.60;;;72.15;;
55330;SDS011;58851;42.984;20.336;2023-03-23T02:02:21;104.72;;;60.42;;
55330;SDS011;58851;42.984;20.336;2023-03-23T02:04:49;128.57;;;67.20;;
55330;SDS011;58851;42.984;20.336;2023-03-23T02:07:17;107.45;;;64.18;;
55330;SDS011;58851;42.984;20.336;2023-03-23T02:09:45;98.60;;;54.25;;
55330;SDS011;58851;42.984;20.336;2023-03-23T02:12:11;69.53;;;43.83;;
55330;SDS011;58851;42.984;20.336;2023-03-23T02:14:37;71.35;;;42.33;;
55330;SDS011;58851;42.984;20.336;2023-03-23T02:26:40;64.00;;;40.10;;
55330;SDS011;58851;42.984;20.336;2023-03-23T02:29:02;55.75;;;32.03;;
55330;SDS011;58851;42.984;20.336;2023-03-23T02:34:32;70.30;;;43.55;;
55330;SDS011;58851;42.984;20.336;2023-03-23T02:37:26;70.63;;;48.10;;
55330;SDS011;58851;42.984;20.336;2023-03-23T02:40:07;84.03;;;52.28;;
55330;SDS011;58851;42.984;20.336;2023-03-23T02:42:38;51.67;;;33.08;;
55330;SDS011;58851;42.984;20.336;2023-03-23T02:45:07;45.63;;;28.50;;
55330;SDS011;58851;42.984;20.336;2023-03-23T02:47:35;77.00;;;44.65;;
55330;SDS011;58851;42.984;20.336;2023-03-23T02:50:03;50.80;;;33.97;;
55330;SDS011;58851;42.984;20.336;2023-03-23T02:52:32;68.57;;;42.63;;
55330;SDS011;58851;42.984;20.336;2023-03-23T02:55:01;114.68;;;64.57;;
55330;SDS011;58851;42.984;20.336;2023-03-23T02:57:28;122.35;;;60.65;;
55330;SDS011;58851;42.984;20.336;2023-03-23T02:59:55;345.65;;;162.55;;
55330;SDS011;58851;42.984;20.336;2023-03-23T03:02:22;358.45;;;163.82;;
55330;SDS011;58851;42.984;20.336;2023-03-23T03:08:00;191.00;;;89.72;;
55330;SDS011;58851;42.984;20.336;2023-03-23T03:10:48;198.52;;;89.35;;
55330;SDS011;58851;42.984;20.336;2023-03-23T03:21:26;92.35;;;57.70;;
55330;SDS011;58851;42.984;20.336;2023-03-23T03:23:55;63.20;;;39.85;;
55330;SDS011;58851;42.984;20.336;2023-03-23T03:26:25;58.83;;;40.67;;
55330;SDS011;58851;42.984;20.336;2023-03-23T03:28:53;141.85;;;78.85;;
55330;SDS011;58851;42.984;20.336;2023-03-23T03:31:28;168.02;;;86.80;;
55330;SDS011;58851;42.984;20.336;2023-03-23T03:33:57;191.07;;;93.25;;
55330;SDS011;58851;42.984;20.336;2023-03-23T03:36:27;192.90;;;95.35;;
55330;SDS011;58851;42.984;20.336;2023-03-23T03:38:59;123.75;;;74.90;;
55330;SDS011;58851;42.984;20.336;2023-03-23T03:41:31;114.13;;;64.70;;
55330;SDS011;58851;42.984;20.336;2023-03-23T03:43:57;85.45;;;53.42;;
55330;SDS011;58851;42.984;20.336;2023-03-23T03:46:23;122.50;;;69.10;;
55330;SDS011;58851;42.984;20.336;2023-03-23T03:48:52;115.22;;;67.75;;
55330;SDS011;58851;42.984;20.336;2023-03-23T03:51:18;115.85;;;73.47;;
55330;SDS011;58851;42.984;20.336;2023-03-23T03:53:43;132.50;;;78.90;;
55330;SDS011;58851;42.984;20.336;2023-03-23T03:56:09;138.55;;;82.30;;
55330;SDS011;58851;42.984;20.336;2023-03-23T03:58:36;115.28;;;77.35;;
55330;SDS011;58851;42.984;20.336;2023-03-23T04:01:02;92.07;;;64.60;;
55330;SDS011;58851;42.984;20.336;2023-03-23T04:03:28;137.38;;;84.47;;
55330;SDS011;58851;42.984;20.336;2023-03-23T04:05:54;137.32;;;84.00;;
55330;SDS011;58851;42.984;20.336;2023-03-23T04:08:24;110.90;;;69.47;;
55330;SDS011;58851;42.984;20.336;2023-03-23T04:10:51;113.60;;;69.88;;
55330;SDS011;58851;42.984;20.336;2023-03-23T04:13:18;71.70;;;45.83;;
55330;SDS011;58851;42.984;20.336;2023-03-23T04:15:44;54.58;;;33.85;;
55330;SDS011;58851;42.984;20.336;2023-03-23T04:18:11;53.08;;;32.53;;
55330;SDS011;58851;42.984;20.336;2023-03-23T04:20:40;44.28;;;30.40;;
55330;SDS011;58851;42.984;20.336;2023-03-23T04:23:14;56.53;;;37.47;;
55330;SDS011;58851;42.984;20.336;2023-03-23T04:25:48;71.80;;;45.28;;
55330;SDS011;58851;42.984;20.336;2023-03-23T04:28:18;84.13;;;48.55;;
55330;SDS011;58851;42.984;20.336;2023-03-23T04:30:44;77.53;;;50.60;;
55330;SDS011;58851;42.984;20.336;2023-03-23T04:33:14;80.38;;;50.40;;
55330;SDS011;58851;42.984;20.336;2023-03-23T04:35:41;63.25;;;44.47;;
55330;SDS011;58851;42.984;20.336;2023-03-23T04:38:11;72.88;;;46.88;;
55330;SDS011;58851;42.984;20.336;2023-03-23T04:40:41;38.75;;;26.00;;
55330;SDS011;58851;42.984;20.336;2023-03-23T04:43:08;37.78;;;24.35;;
55330;SDS011;58851;42.984;20.336;2023-03-23T04:45:37;34.30;;;24.95;;
55330;SDS011;58851;42.984;20.336;2023-03-23T04:48:06;34.00;;;23.90;;
55330;SDS011;58851;42.984;20.336;2023-03-23T04:50:33;42.55;;;28.27;;
55330;SDS011;58851;42.984;20.336;2023-03-23T04:53:00;50.97;;;29.45;;
55330;SDS011;58851;42.984;20.336;2023-03-23T04:55:33;50.42;;;32.58;;
55330;SDS011;58851;42.984;20.336;2023-03-23T04:58:03;152.07;;;82.55;;
55330;SDS011;58851;42.984;20.336;2023-03-23T05:00:31;247.20;;;141.82;;
55330;SDS011;58851;42.984;20.336;2023-03-23T05:03:00;188.88;;;113.88;;
55330;SDS011;58851;42.984;20.336;2023-03-23T05:05:26;156.27;;;93.82;;
55330;SDS011;58851;42.984;20.336;2023-03-23T05:07:54;116.65;;;73.57;;
55330;SDS011;58851;42.984;20.336;2023-03-23T05:10:20;92.80;;;55.60;;
55330;SDS011;58851;42.984;20.336;2023-03-23T05:12:46;76.90;;;46.90;;
55330;SDS011;58851;42.984;20.336;2023-03-23T05:15:13;64.70;;;42.08;;
55330;SDS011;58851;42.984;20.336;2023-03-23T05:17:41;67.43;;;43.25;;
55330;SDS011;58851;42.984;20.336;2023-03-23T05:20:18;85.43;;;51.17;;
55330;SDS011;58851;42.984;20.336;2023-03-23T05:22:45;78.80;;;49.72;;
55330;SDS011;58851;42.984;20.336;2023-03-23T05:25:14;63.83;;;42.92;;
55330;SDS011;58851;42.984;20.336;2023-03-23T05:27:44;60.28;;;39.30;;
55330;SDS011;58851;42.984;20.336;2023-03-23T05:30:13;63.28;;;41.15;;
55330;SDS011;58851;42.984;20.336;2023-03-23T05:32:42;52.90;;;35.80;;
55330;SDS011;58851;42.984;20.336;2023-03-23T05:35:09;75.45;;;47.25;;
55330;SDS011;58851;42.984;20.336;2023-03-23T05:37:37;78.00;;;52.20;;
55330;SDS011;58851;42.984;20.336;2023-03-23T05:40:04;81.72;;;52.17;;
55330;SDS011;58851;42.984;20.336;2023-03-23T05:42:34;72.00;;;48.42;;
55330;SDS011;58851;42.984;20.336;2023-03-23T05:45:04;66.45;;;42.47;;
55330;SDS011;58851;42.984;20.336;2023-03-23T05:47:30;67.88;;;43.50;;
55330;SDS011;58851;42.984;20.336;2023-03-23T05:49:57;63.65;;;43.53;;
55330;SDS011;58851;42.984;20.336;2023-03-23T05:52:23;77.18;;;48.88;;
55330;SDS011;58851;42.984;20.336;2023-03-23T05:54:50;75.88;;;50.00;;
55330;SDS011;58851;42.984;20.336;2023-03-23T05:57:16;86.95;;;58.85;;
55330;SDS011;58851;42.984;20.336;2023-03-23T05:59:43;257.45;;;157.73;;
55330;SDS011;58851;42.984;20.336;2023-03-23T06:02:10;363.23;;;209.68;;
55330;SDS011;58851;42.984;20.336;2023-03-23T06:04:36;331.85;;;188.10;;
55330;SDS011;58851;42.984;20.336;2023-03-23T06:07:03;292.25;;;155.43;;
55330;SDS011;58851;42.984;20.336;2023-03-23T06:09:29;272.98;;;145.70;;
55330;SDS011;58851;42.984;20.336;2023-03-23T06:11:55;256.60;;;132.38;;
55330;SDS011;58851;42.984;20.336;2023-03-23T06:14:22;225.05;;;122.43;;
55330;SDS011;58851;42.984;20.336;2023-03-23T06:16:49;163.13;;;88.18;;
55330;SDS011;58851;42.984;20.336;2023-03-23T06:19:15;112.78;;;65.82;;
55330;SDS011;58851;42.984;20.336;2023-03-23T06:21:42;91.00;;;52.58;;
55330;SDS011;58851;42.984;20.336;2023-03-23T06:24:08;153.75;;;86.53;;
55330;SDS011;58851;42.984;20.336;2023-03-23T06:26:36;144.00;;;86.72;;
55330;SDS011;58851;42.984;20.336;2023-03-23T06:29:03;146.35;;;84.43;;
55330;SDS011;58851;42.984;20.336;2023-03-23T06:31:36;137.57;;;77.40;;
55330;SDS011;58851;42.984;20.336;2023-03-23T06:34:05;129.23;;;75.00;;
55330;SDS011;58851;42.984;20.336;2023-03-23T06:36:30;112.15;;;68.10;;
55330;SDS011;58851;42.984;20.336;2023-03-23T06:38:56;92.70;;;57.75;;
55330;SDS011;58851;42.984;20.336;2023-03-23T06:41:22;87.93;;;54.67;;
55330;SDS011;58851;42.984;20.336;2023-03-23T06:43:48;85.43;;;50.97;;
55330;SDS011;58851;42.984;20.336;2023-03-23T06:46:13;94.97;;;54.90;;
55330;SDS011;58851;42.984;20.336;2023-03-23T06:48:39;75.72;;;47.83;;
55330;SDS011;58851;42.984;20.336;2023-03-23T06:51:05;66.93;;;44.55;;
55330;SDS011;58851;42.984;20.336;2023-03-23T06:53:31;53.55;;;36.38;;
55330;SDS011;58851;42.984;20.336;2023-03-23T06:55:57;41.78;;;27.77;;
55330;SDS011;58851;42.984;20.336;2023-03-23T06:58:23;42.50;;;27.35;;
55330;SDS011;58851;42.984;20.336;2023-03-23T07:00:58;62.03;;;34.33;;
55330;SDS011;58851;42.984;20.336;2023-03-23T07:03:24;64.22;;;38.33;;
55330;SDS011;58851;42.984;20.336;2023-03-23T07:05:51;65.20;;;40.83;;
55330;SDS011;58851;42.984;20.336;2023-03-23T07:08:17;75.55;;;44.28;;
55330;SDS011;58851;42.984;20.336;2023-03-23T07:10:42;69.88;;;43.97;;
55330;SDS011;58851;42.984;20.336;2023-03-23T07:13:08;65.35;;;43.35;;
55330;SDS011;58851;42.984;20.336;2023-03-23T07:15:35;63.92;;;42.90;;
55330;SDS011;58851;42.984;20.336;2023-03-23T07:18:01;61.03;;;39.83;;
55330;SDS011;58851;42.984;20.336;2023-03-23T07:20:27;57.38;;;38.88;;
55330;SDS011;58851;42.984;20.336;2023-03-23T07:22:53;46.22;;;32.97;;
55330;SDS011;58851;42.984;20.336;2023-03-23T07:25:19;54.47;;;35.65;;
55330;SDS011;58851;42.984;20.336;2023-03-23T07:27:45;46.72;;;31.45;;
55330;SDS011;58851;42.984;20.336;2023-03-23T07:30:12;56.47;;;39.92;;
55330;SDS011;58851;42.984;20.336;2023-03-23T07:32:40;63.03;;;45.40;;
55330;SDS011;58851;42.984;20.336;2023-03-23T07:35:07;56.75;;;40.20;;
55330;SDS011;58851;42.984;20.336;2023-03-23T07:37:34;53.25;;;36.60;;
55330;SDS011;58851;42.984;20.336;2023-03-23T07:40:01;49.05;;;35.47;;
55330;SDS011;58851;42.984;20.336;2023-03-23T07:42:40;45.42;;;35.10;;
55330;SDS011;58851;42.984;20.336;2023-03-23T07:45:26;39.60;;;28.05;;
55330;SDS011;58851;42.984;20.336;2023-03-23T07:47:52;34.35;;;26.83;;
55330;SDS011;58851;42.984;20.336;2023-03-23T07:50:18;33.15;;;21.95;;
55330;SDS011;58851;42.984;20.336;2023-03-23T07:52:47;31.60;;;25.00;;
55330;SDS011;58851;42.984;20.336;2023-03-23T07:55:13;37.67;;;27.20;;
55330;SDS011;58851;42.984;20.336;2023-03-23T07:57:45;35.80;;;27.02;;
55330;SDS011;58851;42.984;20.336;2023-03-23T08:00:14;42.60;;;28.85;;
55330;SDS011;58851;42.984;20.336;2023-03-23T08:02:55;37.72;;;27.13;;
55330;SDS011;58851;42.984;20.336;2023-03-23T08:05:22;43.83;;;31.83;;
55330;SDS011;58851;42.984;20.336;2023-03-23T08:07:51;40.85;;;29.30;;
55330;SDS011;58851;42.984;20.336;2023-03-23T08:10:19;37.42;;;26.98;;
55330;SDS011;58851;42.984;20.336;2023-03-23T08:12:49;36.65;;;27.10;;
55330;SDS011;58851;42.984;20.336;2023-03-23T08:15:17;43.45;;;28.77;;
55330;SDS011;58851;42.984;20.336;2023-03-23T08:17:46;46.25;;;32.50;;
55330;SDS011;58851;42.984;20.336;2023-03-23T08:20:12;41.42;;;31.17;;
55330;SDS011;58851;42.984;20.336;2023-03-23T08:22:45;43.88;;;29.75;;
55330;SDS011;58851;42.984;20.336;2023-03-23T08:25:15;38.13;;;27.80;;
55330;SDS011;58851;42.984;20.336;2023-03-23T08:27:42;34.47;;;26.02;;
55330;SDS011;58851;42.984;20.336;2023-03-23T08:30:09;32.58;;;25.50;;
55330;SDS011;58851;42.984;20.336;2023-03-23T08:32:37;33.78;;;25.33;;
55330;SDS011;58851;42.984;20.336;2023-03-23T08:35:03;30.20;;;24.08;;
55330;SDS011;58851;42.984;20.336;2023-03-23T08:37:29;32.50;;;25.00;;
55330;SDS011;58851;42.984;20.336;2023-03-23T08:39:55;32.17;;;25.00;;
55330;SDS011;58851;42.984;20.336;2023-03-23T08:42:23;30.27;;;22.17;;
55330;SDS011;58851;42.984;20.336;2023-03-23T08:44:50;31.30;;;23.85;;
55330;SDS011;58851;42.984;20.336;2023-03-23T08:47:16;32.55;;;22.42;;
55330;SDS011;58851;42.984;20.336;2023-03-23T08:49:42;29.23;;;21.67;;
55330;SDS011;58851;42.984;20.336;2023-03-23T08:52:10;36.15;;;24.05;;
55330;SDS011;58851;42.984;20.336;2023-03-23T08:54:36;33.95;;;23.60;;
55330;SDS011;58851;42.984;20.336;2023-03-23T08:57:03;31.58;;;23.75;;
55330;SDS011;58851;42.984;20.336;2023-03-23T08:59:29;30.83;;;25.25;;
55330;SDS011;58851;42.984;20.336;2023-03-23T09:01:55;41.15;;;26.70;;
55330;SDS011;58851;42.984;20.336;2023-03-23T09:04:21;36.55;;;24.92;;
55330;SDS011;58851;42.984;20.336;2023-03-23T09:06:47;34.85;;;25.67;;
55330;SDS011;58851;42.984;20.336;2023-03-23T09:09:13;36.50;;;23.85;;
55330;SDS011;58851;42.984;20.336;2023-03-23T09:11:39;34.15;;;23.40;;
55330;SDS011;58851;42.984;20.336;2023-03-23T09:14:06;25.58;;;19.63;;
55330;SDS011;58851;42.984;20.336;2023-03-23T09:16:33;26.42;;;19.75;;
55330;SDS011;58851;42.984;20.336;2023-03-23T09:18:59;18.35;;;13.65;;
55330;SDS011;58851;42.984;20.336;2023-03-23T09:21:26;9.02;;;4.70;;
55330;SDS011;58851;42.984;20.336;2023-03-23T09:23:53;23.35;;;9.27;;
55330;SDS011;58851;42.984;20.336;2023-03-23T09:26:23;15.45;;;10.82;;
55330;SDS011;58851;42.984;20.336;2023-03-23T09:28:52;7.63;;;5.65;;
55330;SDS011;58851;42.984;20.336;2023-03-23T09:31:18;8.57;;;3.97;;
55330;SDS011;58851;42.984;20.336;2023-03-23T09:33:47;9.13;;;6.63;;
55330;SDS011;58851;42.984;20.336;2023-03-23T09:36:17;8.98;;;6.85;;
55330;SDS011;58851;42.984;20.336;2023-03-23T09:38:46;10.38;;;6.60;;
55330;SDS011;58851;42.984;20.336;2023-03-23T09:49:02;11.48;;;6.90;;
55330;SDS011;58851;42.984;20.336;2023-03-23T09:54:17;11.00;;;6.50;;
55330;SDS011;58851;42.984;20.336;2023-03-23T09:56:55;11.07;;;5.57;;
55330;SDS011;58851;42.984;20.336;2023-03-23T09:59:31;13.93;;;7.60;;
55330;SDS011;58851;42.984;20.336;2023-03-23T10:02:26;15.55;;;10.43;;
55330;SDS011;58851;42.984;20.336;2023-03-23T10:04:55;9.60;;;6.05;;
55330;SDS011;58851;42.984;20.336;2023-03-23T10:07:27;12.45;;;9.02;;
55330;SDS011;58851;42.984;20.336;2023-03-23T10:09:56;7.25;;;5.05;;
55330;SDS011;58851;42.984;20.336;2023-03-23T10:20:43;9.90;;;6.88;;
55330;SDS011;58851;42.984;20.336;2023-03-23T10:26:40;7.38;;;5.18;;
55330;SDS011;58851;42.984;20.336;2023-03-23T10:29:39;13.63;;;5.97;;
55330;SDS011;58851;42.984;20.336;2023-03-23T10:32:17;10.38;;;6.47;;
55330;SDS011;58851;42.984;20.336;2023-03-23T10:35:03;9.95;;;6.55;;
55330;SDS011;58851;42.984;20.336;2023-03-23T10:37:36;9.18;;;5.75;;
55330;SDS011;58851;42.984;20.336;2023-03-23T10:40:12;11.27;;;6.85;;
55330;SDS011;58851;42.984;20.336;2023-03-23T10:42:41;10.80;;;5.82;;
55330;SDS011;58851;42.984;20.336;2023-03-23T10:45:21;9.52;;;5.72;;
55330;SDS011;58851;42.984;20.336;2023-03-23T10:50:38;8.48;;;5.20;;
55330;SDS011;58851;42.984;20.336;2023-03-23T10:53:13;5.50;;;4.22;;
55330;SDS011;58851;42.984;20.336;2023-03-23T10:55:45;12.63;;;7.03;;
55330;SDS011;58851;42.984;20.336;2023-03-23T10:58:22;11.60;;;6.40;;
55330;SDS011;58851;42.984;20.336;2023-03-23T11:00:50;12.65;;;8.07;;
55330;SDS011;58851;42.984;20.336;2023-03-23T11:05:43;10.05;;;6.05;;
55330;SDS011;58851;42.984;20.336;2023-03-23T11:08:19;6.80;;;5.00;;
55330;SDS011;58851;42.984;20.336;2023-03-23T11:13:22;7.93;;;5.63;;
55330;SDS011;58851;42.984;20.336;2023-03-23T11:15:53;8.95;;;5.78;;
55330;SDS011;58851;42.984;20.336;2023-03-23T11:18:21;9.02;;;5.35;;
55330;SDS011;58851;42.984;20.336;2023-03-23T11:20:54;7.15;;;4.50;;
55330;SDS011;58851;42.984;20.336;2023-03-23T11:23:57;10.60;;;5.78;;
55330;SDS011;58851;42.984;20.336;2023-03-23T11:28:55;8.38;;;5.57;;
55330;SDS011;58851;42.984;20.336;2023-03-23T11:31:27;8.98;;;5.88;;
55330;SDS011;58851;42.984;20.336;2023-03-23T11:36:43;7.20;;;4.97;;
55330;SDS011;58851;42.984;20.336;2023-03-23T11:41:51;13.05;;;6.38;;
55330;SDS011;58851;42.984;20.336;2023-03-23T11:44:17;17.27;;;6.63;;
55330;SDS011;58851;42.984;20.336;2023-03-23T11:47:00;9.68;;;6.80;;
55330;SDS011;58851;42.984;20.336;2023-03-23T11:52:39;11.75;;;7.00;;
55330;SDS011;58851;42.984;20.336;2023-03-23T11:55:15;10.32;;;7.30;;
55330;SDS011;58851;42.984;20.336;2023-03-23T11:58:11;42.15;;;23.30;;
55330;SDS011;58851;42.984;20.336;2023-03-23T12:03:19;11.20;;;6.85;;
55330;SDS011;58851;42.984;20.336;2023-03-23T12:06:09;16.48;;;6.85;;
55330;SDS011;58851;42.984;20.336;2023-03-23T12:14:04;10.73;;;6.30;;
55330;SDS011;58851;42.984;20.336;2023-03-23T12:29:56;11.90;;;7.25;;
55330;SDS011;58851;42.984;20.336;2023-03-23T12:32:33;15.70;;;6.90;;
55330;SDS011;58851;42.984;20.336;2023-03-23T12:38:01;7.38;;;4.95;;
55330;SDS011;58851;42.984;20.336;2023-03-23T12:40:47;9.32;;;6.10;;
55330;SDS011;58851;42.984;20.336;2023-03-23T12:43:39;9.00;;;5.03;;
55330;SDS011;58851;42.984;20.336;2023-03-23T12:49:14;9.27;;;5.82;;
55330;SDS011;58851;42.984;20.336;2023-03-23T12:54:53;11.80;;;6.80;;
55330;SDS011;58851;42.984;20.336;2023-03-23T13:08:27;8.25;;;5.05;;
55330;SDS011;58851;42.984;20.336;2023-03-23T13:10:59;9.70;;;5.38;;
55330;SDS011;58851;42.984;20.336;2023-03-23T13:13:44;9.85;;;5.93;;
55330;SDS011;58851;42.984;20.336;2023-03-23T13:16:27;13.82;;;8.60;;
55330;SDS011;58851;42.984;20.336;2023-03-23T13:24:45;24.75;;;15.75;;
55330;SDS011;58851;42.984;20.336;2023-03-23T13:27:17;17.15;;;11.93;;
55330;SDS011;58851;42.984;20.336;2023-03-23T13:29:48;9.68;;;5.35;;
55330;SDS011;58851;42.984;20.336;2023-03-23T13:32:15;8.77;;;5.50;;
55330;SDS011;58851;42.984;20.336;2023-03-23T13:34:43;8.32;;;3.85;;
55330;SDS011;58851;42.984;20.336;2023-03-23T13:37:19;7.20;;;3.60;;
55330;SDS011;58851;42.984;20.336;2023-03-23T13:39:54;8.27;;;3.60;;
55330;SDS011;58851;42.984;20.336;2023-03-23T13:42:27;5.85;;;3.88;;
55330;SDS011;58851;42.984;20.336;2023-03-23T13:47:37;17.00;;;11.50;;
55330;SDS011;58851;42.984;20.336;2023-03-23T14:13:19;5.60;;;3.63;;
55330;SDS011;58851;42.984;20.336;2023-03-23T14:16:04;18.52;;;9.85;;
55330;SDS011;58851;42.984;20.336;2023-03-23T14:18:41;10.75;;;5.35;;
55330;SDS011;58851;42.984;20.336;2023-03-23T14:21:17;10.70;;;4.72;;
55330;SDS011;58851;42.984;20.336;2023-03-23T14:23:47;11.02;;;6.57;;
55330;SDS011;58851;42.984;20.336;2023-03-23T14:26:15;10.20;;;4.60;;
55330;SDS011;58851;42.984;20.336;2023-03-23T14:28:45;6.43;;;3.92;;
55330;SDS011;58851;42.984;20.336;2023-03-23T14:31:17;7.75;;;4.28;;
55330;SDS011;58851;42.984;20.336;2023-03-23T14:33:43;7.43;;;2.92;;
55330;SDS011;58851;42.984;20.336;2023-03-23T14:36:09;7.80;;;3.72;;
55330;SDS011;58851;42.984;20.336;2023-03-23T14:38:35;8.10;;;3.58;;
55330;SDS011;58851;42.984;20.336;2023-03-23T14:41:03;5.30;;;3.58;;
55330;SDS011;58851;42.984;20.336;2023-03-23T14:43:30;6.45;;;3.50;;
55330;SDS011;58851;42.984;20.336;2023-03-23T14:45:59;11.73;;;3.42;;
55330;SDS011;58851;42.984;20.336;2023-03-23T14:48:27;10.50;;;5.13;;
55330;SDS011;58851;42.984;20.336;2023-03-23T14:50:58;7.43;;;3.30;;
55330;SDS011;58851;42.984;20.336;2023-03-23T14:56:02;11.80;;;6.68;;
55330;SDS011;58851;42.984;20.336;2023-03-23T14:58:34;7.37;;;4.03;;
55330;SDS011;58851;42.984;20.336;2023-03-23T15:03:26;9.05;;;6.05;;
55330;SDS011;58851;42.984;20.336;2023-03-23T15:05:56;11.45;;;6.00;;
55330;SDS011;58851;42.984;20.336;2023-03-23T15:08:30;11.90;;;8.23;;
55330;SDS011;58851;42.984;20.336;2023-03-23T15:11:42;7.40;;;4.40;;
55330;SDS011;58851;42.984;20.336;2023-03-23T15:13:56;6.38;;;3.80;;
55330;SDS011;58851;42.984;20.336;2023-03-23T15:16:27;5.65;;;3.17;;
55330;SDS011;58851;42.984;20.336;2023-03-23T15:19:04;6.32;;;3.95;;
55330;SDS011;58851;42.984;20.336;2023-03-23T15:21:36;10.27;;;5.40;;
55330;SDS011;58851;42.984;20.336;2023-03-23T15:24:33;12.93;;;7.47;;
55330;SDS011;58851;42.984;20.336;2023-03-23T15:29:53;8.55;;;4.82;;
55330;SDS011;58851;42.984;20.336;2023-03-23T15:32:23;9.35;;;4.80;;
55330;SDS011;58851;42.984;20.336;2023-03-23T15:34:51;15.23;;;7.15;;
55330;SDS011;58851;42.984;20.336;2023-03-23T15:37:27;10.10;;;7.68;;
55330;SDS011;58851;42.984;20.336;2023-03-23T15:39:55;14.30;;;11.20;;
55330;SDS011;58851;42.984;20.336;2023-03-23T15:42:29;35.55;;;30.50;;
55330;SDS011;58851;42.984;20.336;2023-03-23T15:50:31;8.13;;;5.00;;
55330;SDS011;58851;42.984;20.336;2023-03-23T15:52:59;8.88;;;5.35;;
55330;SDS011;58851;42.984;20.336;2023-03-23T15:55:28;10.10;;;6.85;;
55330;SDS011;58851;42.984;20.336;2023-03-23T15:58:00;16.73;;;6.47;;
55330;SDS011;58851;42.984;20.336;2023-03-23T16:00:30;31.27;;;12.02;;
55330;SDS011;58851;42.984;20.336;2023-03-23T16:03:01;14.45;;;6.90;;
55330;SDS011;58851;42.984;20.336;2023-03-23T16:05:30;26.85;;;13.13;;
55330;SDS011;58851;42.984;20.336;2023-03-23T16:07:56;38.25;;;20.77;;
55330;SDS011;58851;42.984;20.336;2023-03-23T16:10:23;17.95;;;10.75;;
55330;SDS011;58851;42.984;20.336;2023-03-23T16:12:50;19.35;;;10.48;;
55330;SDS011;58851;42.984;20.336;2023-03-23T16:15:16;76.60;;;54.72;;
55330;SDS011;58851;42.984;20.336;2023-03-23T16:17:42;414.77;;;312.20;;
55330;SDS011;58851;42.984;20.336;2023-03-23T16:22:39;33.08;;;21.98;;
55330;SDS011;58851;42.984;20.336;2023-03-23T16:25:05;44.97;;;19.50;;
55330;SDS011;58851;42.984;20.336;2023-03-23T16:27:31;31.35;;;21.10;;
55330;SDS011;58851;42.984;20.336;2023-03-23T16:29:57;32.78;;;21.30;;
55330;SDS011;58851;42.984;20.336;2023-03-23T16:32:24;99.60;;;63.10;;
55330;SDS011;58851;42.984;20.336;2023-03-23T16:34:50;104.15;;;68.03;;
55330;SDS011;58851;42.984;20.336;2023-03-23T16:37:16;107.43;;;61.85;;
55330;SDS011;58851;42.984;20.336;2023-03-23T16:39:42;112.35;;;64.97;;
55330;SDS011;58851;42.984;20.336;2023-03-23T16:42:08;102.20;;;60.83;;
55330;SDS011;58851;42.984;20.336;2023-03-23T16:44:33;110.65;;;63.58;;
55330;SDS011;58851;42.984;20.336;2023-03-23T16:46:59;94.72;;;52.50;;
55330;SDS011;58851;42.984;20.336;2023-03-23T16:49:25;93.53;;;57.28;;
55330;SDS011;58851;42.984;20.336;2023-03-23T16:51:51;88.70;;;59.25;;
55330;SDS011;58851;42.984;20.336;2023-03-23T16:54:17;110.68;;;62.30;;
55330;SDS011;58851;42.984;20.336;2023-03-23T16:56:42;91.72;;;58.70;;
55330;SDS011;58851;42.984;20.336;2023-03-23T16:59:11;79.30;;;47.40;;
55330;SDS011;58851;42.984;20.336;2023-03-23T17:01:37;72.35;;;47.60;;